Time;durP1;ratioP1;P1;durP2;ratioP2;P2;SDS_P1;SDS_P2;PMS_P1;PMS_P2;Temp;Humidity;BMP_temperature;BMP_pressure;BME280_temperature;BME280_humidity;BME280_pressure;Samples;Min_cycle;Max_cycle;Signal;HPM_P1;HPM_P2
2022/03/13 00:01:51;;;;;;;15.55;9.82;;;1.90;74.90;;;;;;5044826;28;20491;-74
2022/03/13 00:04:17;;;;;;;21.27;10.07;;;1.90;74.50;;;;;;5040517;28;20041;-74
2022/03/13 00:06:46;;;;;;;18.60;9.38;;;2.00;74.40;;;;;;5053922;28;20036;-74
2022/03/13 00:09:14;;;;;;;23.13;10.18;;;2.00;74.70;;;;;;5041976;28;20045;-73
2022/03/13 00:11:40;;;;;;;22.50;10.20;;;1.90;74.50;;;;;;5043710;28;20041;-73
2022/03/13 00:14:09;;;;;;;21.10;9.85;;;1.90;74.30;;;;;;5049183;28;20033;-73
2022/03/13 00:16:36;;;;;;;17.85;9.50;;;2.00;74.20;;;;;;5050744;28;20120;-73
2022/03/13 00:19:03;;;;;;;19.58;9.82;;;2.00;74.10;;;;;;5056985;28;20025;-73
2022/03/13 00:21:29;;;;;;;19.52;10.60;;;2.00;74.20;;;;;;5046387;28;20064;-73
2022/03/13 00:23:54;;;;;;;18.40;10.25;;;2.00;75.00;;;;;;5057507;28;20060;-73
2022/03/13 00:26:20;;;;;;;17.65;10.40;;;2.00;74.10;;;;;;5052550;28;20033;-73
2022/03/13 00:28:46;;;;;;;18.02;10.13;;;2.00;74.40;;;;;;5052813;28;20036;-73
2022/03/13 00:31:13;;;;;;;19.50;9.82;;;1.90;74.60;;;;;;5050069;28;20033;-73
2022/03/13 00:33:38;;;;;;;21.20;10.05;;;1.90;74.70;;;;;;5052467;28;20391;-73
2022/03/13 00:36:04;;;;;;;18.52;9.75;;;1.80;74.60;;;;;;5051918;28;20115;-72
2022/03/13 00:38:30;;;;;;;17.55;10.25;;;1.70;74.70;;;;;;5047031;28;20043;-73
2022/03/13 00:40:58;;;;;;;19.58;10.23;;;1.80;74.80;;;;;;5053968;28;20028;-73
2022/03/13 00:43:25;;;;;;;17.60;9.98;;;1.80;74.40;;;;;;5052271;28;20035;-73
2022/03/13 00:45:51;;;;;;;22.35;10.45;;;1.80;74.80;;;;;;5052131;28;20083;-73
2022/03/13 00:48:17;;;;;;;23.48;10.73;;;1.80;74.70;;;;;;5051719;28;20044;-73
2022/03/13 00:50:44;;;;;;;16.35;9.27;;;1.70;74.40;;;;;;5059543;28;20169;-73
2022/03/13 00:53:10;;;;;;;17.33;10.00;;;1.70;74.90;;;;;;5053376;28;20378;-73
2022/03/13 00:55:36;;;;;;;15.25;9.05;;;1.60;74.80;;;;;;5049168;28;20039;-73
2022/03/13 00:58:02;;;;;;;18.35;8.88;;;1.70;74.80;;;;;;5051828;28;20036;-73
2022/03/13 01:00:27;;;;;;;16.38;9.15;;;1.60;74.80;;;;;;5054765;28;20057;-73
2022/03/13 01:02:53;;;;;;;16.73;9.63;;;1.60;74.60;;;;;;5051357;28;20383;-73
2022/03/13 01:05:24;;;;;;;17.23;9.32;;;1.60;75.60;;;;;;5051116;28;20021;-73
2022/03/13 01:07:59;;;;;;;21.67;10.65;;;1.70;75.70;;;;;;5050777;28;20071;-73
2022/03/13 01:10:26;;;;;;;19.85;8.77;;;1.70;74.80;;;;;;5044063;28;20025;-73
2022/03/13 01:12:52;;;;;;;20.00;9.48;;;1.70;74.00;;;;;;5049408;28;20388;-74
2022/03/13 01:15:19;;;;;;;18.70;9.38;;;1.70;73.90;;;;;;5053853;28;20029;-73
2022/03/13 01:17:44;;;;;;;17.55;9.38;;;1.60;74.20;;;;;;5052586;28;20043;-74
2022/03/13 01:20:24;;;;;;;17.83;8.55;;;1.50;74.10;;;;;;5052618;28;20025;-74
2022/03/13 01:22:50;;;;;;;15.90;9.45;;;1.40;74.50;;;;;;5050839;28;20025;-73
2022/03/13 01:25:16;;;;;;;16.23;8.60;;;1.50;73.90;;;;;;5055912;28;20021;-74
2022/03/13 01:27:42;;;;;;;16.73;8.73;;;1.40;74.20;;;;;;5050856;28;20124;-74
2022/03/13 01:30:08;;;;;;;14.75;8.70;;;1.30;74.40;;;;;;5046285;28;20682;-74
2022/03/13 01:32:35;;;;;;;15.95;9.35;;;1.40;73.90;;;;;;5052159;28;20132;-74
2022/03/13 01:35:01;;;;;;;16.80;8.98;;;1.40;74.00;;;;;;5052186;28;20556;-74
2022/03/13 01:37:27;;;;;;;15.20;8.65;;;1.50;74.10;;;;;;5054944;28;20036;-74
2022/03/13 01:39:54;;;;;;;20.05;9.20;;;1.40;73.90;;;;;;5050953;28;20033;-73
2022/03/13 01:42:19;;;;;;;16.65;9.20;;;1.40;73.80;;;;;;5055688;28;20111;-73
2022/03/13 01:44:45;;;;;;;15.63;7.75;;;1.40;74.00;;;;;;5051203;28;20108;-74
2022/03/13 01:47:11;;;;;;;17.17;8.73;;;1.50;73.40;;;;;;5048133;28;20135;-74
2022/03/13 01:49:38;;;;;;;17.63;9.82;;;1.50;73.50;;;;;;5050458;28;20032;-74
2022/03/13 01:52:04;;;;;;;16.20;8.35;;;1.50;73.60;;;;;;5051018;28;20025;-74
2022/03/13 01:54:33;;;;;;;15.30;8.38;;;1.40;74.00;;;;;;5050511;28;20033;-73
2022/03/13 01:57:00;;;;;;;17.45;9.15;;;1.40;73.90;;;;;;5050660;28;20025;-73
2022/03/13 01:59:28;;;;;;;15.88;9.05;;;1.30;73.70;;;;;;5049979;28;20364;-73
2022/03/13 02:01:54;;;;;;;20.35;9.18;;;1.40;73.30;;;;;;5052195;28;20045;-74
2022/03/13 02:04:28;;;;;;;14.10;8.45;;;1.30;74.00;;;;;;5048417;28;20621;-74
2022/03/13 02:06:58;;;;;;;16.77;9.57;;;1.30;74.10;;;;;;5047886;28;20431;-73
2022/03/13 02:09:27;;;;;;;15.88;8.30;;;1.30;73.60;;;;;;5047574;28;20086;-74
2022/03/13 02:11:54;;;;;;;14.10;7.38;;;1.20;73.70;;;;;;5056652;28;20115;-74
2022/03/13 02:14:22;;;;;;;14.82;8.32;;;1.20;73.90;;;;;;5052384;28;20085;-73
2022/03/13 02:16:50;;;;;;;17.63;8.25;;;1.20;73.50;;;;;;5052000;28;20059;-73
2022/03/13 02:19:17;;;;;;;15.88;8.55;;;1.30;73.50;;;;;;5052938;28;20047;-73
2022/03/13 02:21:44;;;;;;;17.88;9.98;;;1.30;73.40;;;;;;5048071;28;20112;-73
2022/03/13 02:24:15;;;;;;;19.35;8.93;;;1.30;73.20;;;;;;5055963;28;20035;-73
2022/03/13 02:26:42;;;;;;;15.05;8.73;;;1.30;73.40;;;;;;5050353;28;20029;-74
2022/03/13 02:29:12;;;;;;;15.52;8.75;;;1.30;73.50;;;;;;5049843;28;20125;-73
2022/03/13 02:31:38;;;;;;;16.63;7.47;;;1.20;73.80;;;;;;5051949;28;20083;-73
2022/03/13 02:34:08;;;;;;;15.43;8.75;;;1.10;73.80;;;;;;5054382;28;20032;-73
2022/03/13 02:36:36;;;;;;;14.02;8.02;;;1.10;73.50;;;;;;5051086;28;20036;-74
2022/03/13 02:39:04;;;;;;;13.82;7.18;;;1.10;73.30;;;;;;5055041;28;20414;-73
2022/03/13 02:41:30;;;;;;;16.23;8.30;;;1.10;73.00;;;;;;5060957;28;20047;-74
2022/03/13 02:43:57;;;;;;;14.88;7.25;;;1.10;72.80;;;;;;5054682;28;20037;-74
2022/03/13 02:46:42;;;;;;;17.10;8.45;;;1.20;73.50;;;;;;5053218;28;20025;-73
2022/03/13 02:49:08;;;;;;;12.13;7.28;;;1.10;73.00;;;;;;5057495;28;20072;-73
2022/03/13 02:51:34;;;;;;;12.90;7.90;;;1.00;73.30;;;;;;5054634;28;20057;-74
2022/03/13 02:53:59;;;;;;;18.27;8.68;;;1.00;73.40;;;;;;5049127;28;20091;-74
2022/03/13 02:56:25;;;;;;;15.93;7.70;;;0.90;73.20;;;;;;5053362;28;20506;-74
2022/03/13 02:58:51;;;;;;;14.65;6.88;;;1.10;72.60;;;;;;5054461;28;20113;-74
2022/03/13 03:01:18;;;;;;;13.55;7.32;;;1.10;73.00;;;;;;5053523;28;20052;-74
2022/03/13 03:03:45;;;;;;;14.45;7.88;;;1.10;72.30;;;;;;5054070;28;20476;-73
2022/03/13 03:06:13;;;;;;;13.00;7.35;;;1.20;71.90;;;;;;5055473;28;20033;-73
2022/03/13 03:08:38;;;;;;;16.85;7.00;;;1.10;71.80;;;;;;5056706;28;20395;-73
2022/03/13 03:11:04;;;;;;;13.45;7.05;;;1.00;72.00;;;;;;5051495;28;20029;-74
2022/03/13 03:13:30;;;;;;;17.00;7.85;;;1.00;71.90;;;;;;5060636;28;20032;-74
2022/03/13 03:15:56;;;;;;;11.80;6.78;;;1.10;71.40;;;;;;5056092;28;20051;-73
2022/03/13 03:18:21;;;;;;;14.82;8.13;;;1.00;71.70;;;;;;5053040;28;20037;-74
2022/03/13 03:20:47;;;;;;;15.52;7.88;;;1.00;71.30;;;;;;5055463;28;20032;-73
2022/03/13 03:23:13;;;;;;;15.80;7.47;;;1.00;71.90;;;;;;5053702;28;20033;-73
2022/03/13 03:25:39;;;;;;;16.80;8.20;;;0.90;73.00;;;;;;5057527;28;20137;-73
2022/03/13 03:28:06;;;;;;;14.00;8.27;;;1.00;72.90;;;;;;5048827;28;20133;-73
2022/03/13 03:30:32;;;;;;;13.07;7.47;;;1.00;73.00;;;;;;5053158;28;20052;-73
2022/03/13 03:33:02;;;;;;;16.30;8.65;;;0.90;73.90;;;;;;5052252;28;20052;-73
2022/03/13 03:35:27;;;;;;;15.23;8.27;;;1.00;73.90;;;;;;5052897;28;20037;-73
2022/03/13 03:37:54;;;;;;;18.20;9.55;;;1.20;72.30;;;;;;5053078;28;20035;-73
2022/03/13 03:40:25;;;;;;;16.00;8.02;;;1.30;72.50;;;;;;5053382;28;20033;-73
2022/03/13 03:42:54;;;;;;;18.30;8.45;;;1.50;72.20;;;;;;5052282;28;20036;-73
2022/03/13 03:45:20;;;;;;;15.88;6.72;;;1.50;71.40;;;;;;5053772;28;20032;-73
2022/03/13 03:47:46;;;;;;;14.38;7.65;;;1.50;71.90;;;;;;5053696;28;20478;-73
2022/03/13 03:50:12;;;;;;;16.80;7.63;;;1.50;71.80;;;;;;5053493;28;20040;-73
2022/03/13 03:52:37;;;;;;;15.82;8.68;;;1.60;71.90;;;;;;5052017;28;20452;-73
2022/03/13 03:55:04;;;;;;;17.98;9.45;;;1.40;74.40;;;;;;5052535;28;20097;-73
2022/03/13 03:57:29;;;;;;;19.17;9.50;;;1.20;75.00;;;;;;5052487;28;20025;-73
2022/03/13 03:59:55;;;;;;;16.42;7.80;;;1.10;74.70;;;;;;5052390;28;20051;-73
2022/03/13 04:02:21;;;;;;;16.52;8.32;;;1.10;73.80;;;;;;5046433;28;20062;-74
2022/03/13 04:04:46;;;;;;;14.93;7.13;;;1.00;73.10;;;;;;5049704;28;20033;-74
2022/03/13 04:07:13;;;;;;;15.52;7.75;;;1.00;73.30;;;;;;5057060;28;20024;-74
2022/03/13 04:09:40;;;;;;;14.10;7.60;;;1.10;72.60;;;;;;5048214;28;20128;-74
2022/03/13 04:12:07;;;;;;;14.82;7.97;;;1.00;72.90;;;;;;5048557;28;20116;-75
2022/03/13 04:14:35;;;;;;;16.95;8.52;;;0.90;73.20;;;;;;5050298;28;20079;-74
2022/03/13 04:17:01;;;;;;;14.88;7.32;;;1.00;73.00;;;;;;5044630;28;20357;-74
2022/03/13 04:19:27;;;;;;;18.58;9.10;;;0.90;73.10;;;;;;5040181;28;20033;-75
2022/03/13 04:21:53;;;;;;;14.75;8.02;;;1.00;73.00;;;;;;5050848;28;20063;-74
2022/03/13 04:24:19;;;;;;;15.20;8.57;;;0.70;73.00;;;;;;5047232;28;20044;-74
2022/03/13 04:26:45;;;;;;;12.80;6.88;;;0.80;73.60;;;;;;5047412;28;20021;-74
2022/03/13 04:29:11;;;;;;;15.65;6.80;;;0.90;72.20;;;;;;5046495;28;20062;-74
2022/03/13 04:31:40;;;;;;;12.05;6.63;;;0.90;72.40;;;;;;5047874;28;20029;-74
2022/03/13 04:34:06;;;;;;;14.40;7.43;;;0.80;72.50;;;;;;5048635;28;20037;-74
2022/03/13 04:36:33;;;;;;;11.40;6.60;;;0.80;72.30;;;;;;5050213;28;20512;-74
2022/03/13 04:38:59;;;;;;;18.10;6.60;;;0.90;71.70;;;;;;5047425;28;20523;-75
2022/03/13 04:41:25;;;;;;;15.05;7.28;;;0.80;72.50;;;;;;5048151;28;20064;-74
2022/03/13 04:43:53;;;;;;;12.73;7.18;;;0.60;72.30;;;;;;5050849;28;20486;-75
2022/03/13 04:46:18;;;;;;;13.32;7.20;;;0.50;72.90;;;;;;5055286;28;20040;-74
2022/03/13 04:48:44;;;;;;;15.77;8.05;;;0.50;72.80;;;;;;5048954;28;20422;-74
2022/03/13 04:51:10;;;;;;;15.75;7.25;;;0.50;73.10;;;;;;5047286;28;20123;-74
2022/03/13 04:53:36;;;;;;;14.27;7.13;;;0.50;73.00;;;;;;5046206;28;20024;-74
2022/03/13 04:56:02;;;;;;;17.02;7.22;;;0.50;73.00;;;;;;5047505;28;20029;-74
2022/03/13 04:58:28;;;;;;;19.58;11.70;;;0.70;72.50;;;;;;5048540;28;20037;-74
2022/03/13 05:00:54;;;;;;;14.00;7.47;;;0.70;72.90;;;;;;5046371;28;20043;-74
2022/03/13 05:03:20;;;;;;;14.65;8.02;;;0.60;72.70;;;;;;5042858;28;20107;-73
2022/03/13 05:05:46;;;;;;;17.70;7.45;;;0.50;73.70;;;;;;5039404;28;20083;-73
2022/03/13 05:08:15;;;;;;;21.27;9.95;;;0.40;73.40;;;;;;5043716;28;20065;-74
2022/03/13 05:10:43;;;;;;;14.25;7.35;;;0.60;74.90;;;;;;5046131;28;20028;-73
2022/03/13 05:13:14;;;;;;;13.18;6.57;;;0.70;73.40;;;;;;5044476;28;20131;-74
2022/03/13 05:15:42;;;;;;;17.77;8.13;;;0.70;72.10;;;;;;5047303;28;20044;-73
2022/03/13 05:18:09;;;;;;;14.57;7.55;;;0.50;73.40;;;;;;5047071;28;20083;-74
2022/03/13 05:20:35;;;;;;;14.07;6.72;;;0.30;74.00;;;;;;5047834;28;20047;-74
2022/03/13 05:23:03;;;;;;;14.88;6.65;;;0.40;73.60;;;;;;5048814;28;20446;-74
2022/03/13 05:25:32;;;;;;;13.95;6.57;;;0.40;72.30;;;;;;5046790;28;20028;-74
2022/03/13 05:27:59;;;;;;;16.67;9.38;;;0.50;72.90;;;;;;5038777;28;20043;-74
2022/03/13 05:30:25;;;;;;;15.82;9.07;;;0.50;74.60;;;;;;5050811;28;20116;-74
2022/03/13 05:32:51;;;;;;;11.38;7.00;;;0.50;74.80;;;;;;5050561;28;20032;-74
2022/03/13 05:35:17;;;;;;;17.75;7.07;;;0.50;74.10;;;;;;5045855;28;20032;-74
2022/03/13 05:37:44;;;;;;;11.10;6.60;;;0.50;75.30;;;;;;5049396;28;20036;-74
2022/03/13 05:40:15;;;;;;;18.65;8.98;;;0.20;75.10;;;;;;5046720;28;20032;-74
2022/03/13 05:42:43;;;;;;;16.00;8.30;;;0.20;75.60;;;;;;5046054;28;20064;-74
2022/03/13 05:45:10;;;;;;;12.60;6.78;;;0.20;74.20;;;;;;5041591;28;20032;-74
2022/03/13 05:47:49;;;;;;;14.57;7.75;;;0.10;74.20;;;;;;5047390;28;20109;-74
2022/03/13 05:50:17;;;;;;;15.40;8.27;;;0.10;74.40;;;;;;5045267;28;20493;-74
2022/03/13 05:52:46;;;;;;;15.93;8.68;;;0.10;75.90;;;;;;5051885;28;20162;-74
2022/03/13 05:55:12;;;;;;;13.98;7.68;;;0.20;76.00;;;;;;5050306;28;20039;-74
2022/03/13 05:57:38;;;;;;;15.93;8.57;;;0.20;75.30;;;;;;5044756;28;20075;-74
2022/03/13 06:00:07;;;;;;;13.93;7.13;;;0.20;75.30;;;;;;5043236;28;20041;-74
2022/03/13 06:02:36;;;;;;;16.17;8.30;;;0.40;74.50;;;;;;5032190;28;20029;-74
2022/03/13 06:05:03;;;;;;;15.02;7.68;;;0.20;74.90;;;;;;5036498;28;20032;-74
2022/03/13 06:07:28;;;;;;;14.55;7.22;;;0.10;75.10;;;;;;5036306;28;20132;-74
2022/03/13 06:09:56;;;;;;;14.02;8.52;;;0.20;74.40;;;;;;5050718;28;20032;-74
2022/03/13 06:12:21;;;;;;;17.23;8.57;;;0.20;74.20;;;;;;5045061;28;20089;-74
2022/03/13 06:14:47;;;;;;;12.80;7.03;;;0.40;74.90;;;;;;5046697;28;20041;-74
2022/03/13 06:17:13;;;;;;;14.73;6.82;;;0.30;74.70;;;;;;5047044;28;20024;-74
2022/03/13 06:19:42;;;;;;;15.85;8.25;;;0.40;73.80;;;;;;5043358;28;20052;-74
2022/03/13 06:22:09;;;;;;;13.27;8.05;;;0.50;74.30;;;;;;5043664;28;20515;-74
2022/03/13 06:24:35;;;;;;;14.40;7.57;;;0.40;74.50;;;;;;5043027;28;20059;-74
2022/03/13 06:27:01;;;;;;;16.50;8.23;;;0.40;75.00;;;;;;5042925;28;20063;-74
2022/03/13 06:29:27;;;;;;;17.27;9.50;;;0.30;75.50;;;;;;5042449;28;20454;-74
2022/03/13 06:31:52;;;;;;;16.17;8.00;;;0.40;76.00;;;;;;5044136;28;20116;-74
2022/03/13 06:34:19;;;;;;;19.80;10.15;;;0.40;76.00;;;;;;5041039;28;20053;-74
2022/03/13 06:36:45;;;;;;;17.05;8.80;;;0.50;75.40;;;;;;5042505;28;20036;-74
2022/03/13 06:39:10;;;;;;;18.23;8.95;;;0.70;75.00;;;;;;5047029;28;20032;-74
2022/03/13 06:41:38;;;;;;;21.85;12.63;;;0.60;77.00;;;;;;5044234;28;20507;-74
2022/03/13 06:44:04;;;;;;;18.23;10.13;;;0.70;77.70;;;;;;5047719;28;20060;-74
2022/03/13 06:46:30;;;;;;;23.13;11.20;;;0.70;77.80;;;;;;5041622;28;20383;-74
2022/03/13 06:48:56;;;;;;;21.17;10.80;;;0.70;78.70;;;;;;5042339;28;20040;-74
2022/03/13 06:51:22;;;;;;;19.85;9.93;;;0.70;79.40;;;;;;5040809;28;20033;-74
2022/03/13 06:53:48;;;;;;;19.33;10.00;;;0.80;79.60;;;;;;5040956;28;20156;-74
2022/03/13 06:56:13;;;;;;;21.48;10.57;;;0.80;78.90;;;;;;5038680;28;20021;-74
2022/03/13 06:58:41;;;;;;;25.80;11.57;;;0.80;79.40;;;;;;5042665;28;20215;-74
2022/03/13 07:01:07;;;;;;;23.10;11.95;;;0.60;79.80;;;;;;5033676;28;20044;-74
2022/03/13 07:03:34;;;;;;;20.35;10.70;;;0.60;79.70;;;;;;5039680;28;20036;-74
2022/03/13 07:06:02;;;;;;;19.25;10.68;;;0.70;80.10;;;;;;5043750;28;21046;-74
2022/03/13 07:08:28;;;;;;;24.60;11.43;;;0.70;80.40;;;;;;5046931;28;20055;-74
2022/03/13 07:10:54;;;;;;;18.00;11.18;;;0.60;80.20;;;;;;5042505;28;20028;-74
2022/03/13 07:13:20;;;;;;;20.98;11.00;;;0.60;80.10;;;;;;5049171;28;20064;-74
2022/03/13 07:15:47;;;;;;;22.13;10.82;;;0.60;81.10;;;;;;5045985;28;20051;-74
2022/03/13 07:18:13;;;;;;;21.45;11.25;;;0.70;81.00;;;;;;5036666;28;20728;-73
2022/03/13 07:20:39;;;;;;;26.73;13.77;;;0.80;81.10;;;;;;5042130;28;20056;-74
2022/03/13 07:23:04;;;;;;;28.00;14.27;;;0.90;81.30;;;;;;5037845;28;20107;-73
2022/03/13 07:25:30;;;;;;;24.90;12.40;;;0.90;81.50;;;;;;5045706;28;20040;-76
2022/03/13 07:27:55;;;;;;;27.15;14.23;;;1.10;81.10;;;;;;5040970;28;20065;-76
2022/03/13 07:30:21;;;;;;;27.20;13.60;;;1.10;80.80;;;;;;5046463;28;20072;-77
2022/03/13 07:32:47;;;;;;;25.10;13.35;;;1.00;81.60;;;;;;5043451;28;20503;-77
2022/03/13 07:35:13;;;;;;;24.23;13.10;;;1.00;81.70;;;;;;5045206;28;20032;-76
2022/03/13 07:37:38;;;;;;;24.00;12.95;;;1.00;81.40;;;;;;5043421;28;20068;-76
2022/03/13 07:40:06;;;;;;;26.05;13.15;;;1.10;81.00;;;;;;5044722;28;20053;-78
2022/03/13 07:42:31;;;;;;;21.85;13.43;;;1.20;81.10;;;;;;5041838;28;20079;-77
2022/03/13 07:44:57;;;;;;;23.67;13.13;;;1.30;81.00;;;;;;5037689;28;20041;-76
2022/03/13 07:47:23;;;;;;;21.73;12.82;;;1.40;81.10;;;;;;5045312;28;20069;-77
2022/03/13 07:49:48;;;;;;;26.45;12.70;;;1.50;81.30;;;;;;5043714;28;20028;-76
2022/03/13 07:52:14;;;;;;;21.70;13.13;;;1.50;81.30;;;;;;5042916;28;20106;-74
2022/03/13 07:54:40;;;;;;;24.48;12.68;;;1.50;80.90;;;;;;5044280;28;20037;-75
2022/03/13 07:57:05;;;;;;;26.27;13.60;;;1.50;81.40;;;;;;5045202;28;20043;-76
2022/03/13 07:59:31;;;;;;;24.20;13.32;;;1.50;81.00;;;;;;5045077;28;20076;-75
2022/03/13 08:01:58;;;;;;;25.65;14.25;;;1.50;80.60;;;;;;5047842;28;20057;-75
2022/03/13 08:04:24;;;;;;;21.38;12.27;;;1.60;80.50;;;;;;5047843;28;20025;-76
2022/03/13 08:06:50;;;;;;;25.10;13.50;;;1.70;80.20;;;;;;5045077;28;20025;-76
2022/03/13 08:09:16;;;;;;;23.25;13.40;;;1.90;79.60;;;;;;5043488;28;20040;-75
2022/03/13 08:11:42;;;;;;;25.35;12.90;;;1.90;79.10;;;;;;5045595;28;20063;-75
2022/03/13 08:14:08;;;;;;;26.42;13.27;;;2.20;79.10;;;;;;5045343;28;20033;-76
2022/03/13 08:16:35;;;;;;;23.58;14.15;;;2.20;79.30;;;;;;5046349;28;20487;-76
2022/03/13 08:19:01;;;;;;;33.42;17.38;;;2.20;79.50;;;;;;5043632;28;20033;-74
2022/03/13 08:21:27;;;;;;;26.92;13.93;;;2.50;79.80;;;;;;5045203;28;20025;-76
2022/03/13 08:23:54;;;;;;;22.77;12.90;;;2.60;79.60;;;;;;5045710;28;20036;-76
2022/03/13 08:26:20;;;;;;;25.55;14.70;;;2.70;79.10;;;;;;5045469;28;20033;-75
2022/03/13 08:28:46;;;;;;;29.10;14.38;;;2.70;79.20;;;;;;5045428;28;20036;-75
2022/03/13 08:31:12;;;;;;;25.15;13.70;;;2.60;79.30;;;;;;5044958;28;20490;-77
2022/03/13 08:33:38;;;;;;;24.13;13.18;;;2.70;80.40;;;;;;5042788;28;20040;-77
2022/03/13 08:36:04;;;;;;;25.65;13.60;;;2.50;79.80;;;;;;5047402;28;20025;-76
2022/03/13 08:38:30;;;;;;;26.85;14.13;;;2.50;79.70;;;;;;5045031;28;20068;-76
2022/03/13 08:40:56;;;;;;;24.77;13.80;;;2.70;80.40;;;;;;5049283;28;20040;-76
2022/03/13 08:43:22;;;;;;;21.88;13.15;;;2.70;80.30;;;;;;5039335;28;20036;-76
2022/03/13 08:45:48;;;;;;;27.15;14.10;;;2.90;79.90;;;;;;5039280;28;20033;-74
2022/03/13 08:48:14;;;;;;;22.25;14.20;;;3.00;79.20;;;;;;5039347;28;20423;-75
2022/03/13 08:50:40;;;;;;;25.55;14.05;;;3.00;78.90;;;;;;5034190;28;20048;-75
2022/03/13 08:53:06;;;;;;;24.02;13.15;;;3.00;78.20;;;;;;5045076;28;20052;-75
2022/03/13 08:55:32;;;;;;;30.05;14.40;;;3.10;78.40;;;;;;5045060;28;20067;-75
2022/03/13 08:57:57;;;;;;;32.25;14.27;;;3.20;77.80;;;;;;5045968;28;20416;-74
2022/03/13 09:00:24;;;;;;;32.78;13.10;;;3.30;77.40;;;;;;5045014;28;20121;-74
2022/03/13 09:02:50;;;;;;;27.80;13.18;;;3.50;77.20;;;;;;5045049;28;20037;-74
2022/03/13 09:05:16;;;;;;;24.92;14.32;;;3.40;78.10;;;;;;5042988;28;20148;-75
2022/03/13 09:07:43;;;;;;;23.70;12.90;;;3.70;78.60;;;;;;5038640;28;20033;-75
2022/03/13 09:10:09;;;;;;;26.60;12.90;;;3.80;77.40;;;;;;5044365;28;20029;-75
2022/03/13 09:12:36;;;;;;;28.95;15.00;;;3.80;77.20;;;;;;5046734;28;20032;-75
2022/03/13 09:15:02;;;;;;;61.13;29.13;;;3.80;77.00;;;;;;5044141;28;20238;-75
2022/03/13 09:17:28;;;;;;;47.45;25.83;;;3.90;77.10;;;;;;5044378;28;20108;-75
2022/03/13 09:19:55;;;;;;;29.85;16.67;;;4.00;76.30;;;;;;5044529;28;20104;-76
2022/03/13 09:22:22;;;;;;;37.83;17.42;;;4.00;76.30;;;;;;5044285;28;20034;-75
2022/03/13 09:24:49;;;;;;;24.30;13.25;;;4.10;75.90;;;;;;5042352;28;20498;-75
2022/03/13 09:27:14;;;;;;;31.05;12.82;;;4.10;76.50;;;;;;5044478;28;20025;-77
2022/03/13 09:29:40;;;;;;;34.17;14.55;;;4.10;76.30;;;;;;5044654;28;20032;-75
2022/03/13 09:32:06;;;;;;;24.40;13.85;;;4.10;75.90;;;;;;5044895;28;20036;-75
2022/03/13 09:34:34;;;;;;;25.98;13.18;;;4.10;75.40;;;;;;5043855;28;20518;-75
2022/03/13 09:37:00;;;;;;;21.58;12.10;;;4.20;74.80;;;;;;5043254;28;20035;-75
2022/03/13 09:39:25;;;;;;;23.15;12.73;;;4.20;74.60;;;;;;5043925;28;20033;-76
2022/03/13 09:41:52;;;;;;;23.25;11.95;;;4.30;75.20;;;;;;5040079;28;20037;-76
2022/03/13 09:44:18;;;;;;;28.92;13.10;;;4.50;75.00;;;;;;5040749;28;20052;-75
2022/03/13 09:46:45;;;;;;;21.23;12.65;;;4.70;73.30;;;;;;5046848;28;20700;-75
2022/03/13 09:49:10;;;;;;;26.48;12.80;;;4.80;73.60;;;;;;5035743;28;20544;-74
2022/03/13 09:51:36;;;;;;;23.02;11.50;;;4.90;72.20;;;;;;5041706;28;20033;-76
2022/03/13 09:54:02;;;;;;;23.67;11.50;;;5.00;72.80;;;;;;5044475;28;20081;-75
2022/03/13 09:56:28;;;;;;;16.77;9.82;;;5.20;72.00;;;;;;5043018;28;20036;-75
2022/03/13 09:58:54;;;;;;;19.60;10.10;;;5.20;70.30;;;;;;5035772;28;20036;-76
2022/03/13 10:01:19;;;;;;;20.80;11.20;;;5.20;70.80;;;;;;5042453;28;20663;-76
2022/03/13 10:03:45;;;;;;;19.48;10.75;;;5.20;70.70;;;;;;5043715;28;20110;-75
2022/03/13 10:06:11;;;;;;;18.63;10.35;;;5.40;70.50;;;;;;5044462;28;20025;-75
2022/03/13 10:08:36;;;;;;;17.25;10.55;;;5.40;70.40;;;;;;5043602;28;20517;-75
2022/03/13 10:11:03;;;;;;;19.52;10.88;;;5.40;70.20;;;;;;5042556;28;20614;-76
2022/03/13 10:13:43;;;;;;;20.38;11.52;;;5.60;70.80;;;;;;5043321;28;20549;-75
2022/03/13 10:16:22;;;;;;;24.00;13.45;;;5.50;69.80;;;;;;5040775;28;20029;-75
2022/03/13 10:18:48;;;;;;;24.52;13.20;;;5.70;70.30;;;;;;5044816;28;20033;-77
2022/03/13 10:21:17;;;;;;;20.08;11.10;;;5.90;70.50;;;;;;5042602;28;20037;-75
2022/03/13 10:23:43;;;;;;;22.25;12.77;;;5.80;69.60;;;;;;5038392;28;20025;-75
2022/03/13 10:26:09;;;;;;;25.70;11.27;;;5.80;69.40;;;;;;5046980;28;20394;-75
2022/03/13 10:28:36;;;;;;;22.55;11.75;;;6.10;70.50;;;;;;5047059;28;20082;-75
2022/03/13 10:31:02;;;;;;;20.98;12.15;;;6.20;70.20;;;;;;5042271;28;20037;-76
2022/03/13 10:33:43;;;;;;;24.38;13.35;;;6.20;69.70;;;;;;5041934;28;20048;-75
2022/03/13 10:36:10;;;;;;;22.70;13.32;;;6.40;69.30;;;;;;5043336;28;20040;-76
2022/03/13 10:38:36;;;;;;;21.05;12.45;;;6.40;68.80;;;;;;5047262;28;20048;-75
2022/03/13 10:41:09;;;;;;;25.40;13.27;;;6.40;68.50;;;;;;5042631;28;20602;-76
2022/03/13 10:43:55;;;;;;;23.13;12.65;;;6.40;69.50;;;;;;5043025;28;20032;-75
2022/03/13 10:46:36;;;;;;;23.35;12.32;;;6.80;69.00;;;;;;5042031;28;20033;-74
2022/03/13 10:49:06;;;;;;;19.75;11.32;;;6.80;68.20;;;;;;5042191;28;20025;-73
2022/03/13 10:51:36;;;;;;;19.30;11.00;;;6.90;68.70;;;;;;5042562;28;20064;-74
2022/03/13 10:54:04;;;;;;;21.80;11.95;;;7.20;67.10;;;;;;5042683;28;20032;-74
2022/03/13 10:56:29;;;;;;;19.95;10.70;;;7.50;67.50;;;;;;5043676;28;20043;-74
2022/03/13 10:58:56;;;;;;;21.30;11.25;;;7.60;66.80;;;;;;5046194;28;20043;-74
2022/03/13 11:01:23;;;;;;;19.90;11.02;;;7.60;67.60;;;;;;5046343;28;20056;-74
2022/03/13 11:03:59;;;;;;;18.00;11.68;;;7.40;66.20;;;;;;5047762;28;20461;-74
2022/03/13 11:06:26;;;;;;;19.05;11.48;;;7.70;68.10;;;;;;5046081;28;20033;-74
2022/03/13 11:08:54;;;;;;;20.88;11.68;;;7.90;68.50;;;;;;5044311;28;20037;-75
2022/03/13 11:11:26;;;;;;;18.17;11.00;;;8.00;66.00;;;;;;5047309;28;20083;-75
2022/03/13 11:14:01;;;;;;;21.85;11.30;;;8.00;66.00;;;;;;5046998;28;20037;-73
2022/03/13 11:16:30;;;;;;;20.42;11.75;;;8.10;65.50;;;;;;5046969;28;20037;-74
2022/03/13 11:18:59;;;;;;;17.83;10.05;;;8.20;64.90;;;;;;5046937;28;20434;-75
2022/03/13 11:21:25;;;;;;;12.02;8.10;;;8.40;60.10;;;;;;5048624;28;20032;-74
2022/03/13 11:23:52;;;;;;;14.15;8.23;;;8.50;60.70;;;;;;5041542;28;20034;-75
2022/03/13 11:26:20;;;;;;;13.23;7.68;;;8.70;61.00;;;;;;5050102;28;20120;-74
2022/03/13 11:28:48;;;;;;;15.25;8.40;;;8.80;58.20;;;;;;5046065;28;20120;-74
2022/03/13 11:31:35;;;;;;;14.93;6.72;;;9.00;58.80;;;;;;5046082;28;20033;-74
2022/03/13 11:34:21;;;;;;;14.00;7.60;;;9.10;56.30;;;;;;5039368;28;20049;-74
2022/03/13 11:36:49;;;;;;;12.80;6.93;;;9.30;57.30;;;;;;5045051;28;20106;-74
2022/03/13 11:39:30;;;;;;;13.23;7.28;;;9.00;56.90;;;;;;5050579;28;20040;-74
2022/03/13 11:41:56;;;;;;;13.07;6.88;;;8.90;56.50;;;;;;5047490;28;20037;-74
2022/03/13 11:44:26;;;;;;;11.57;6.88;;;9.30;56.90;;;;;;5052081;28;20033;-74
2022/03/13 11:46:53;;;;;;;9.80;5.55;;;9.10;54.80;;;;;;5050772;28;20021;-74
2022/03/13 11:49:31;;;;;;;10.63;6.03;;;9.30;53.80;;;;;;5049167;28;20052;-75
2022/03/13 11:52:17;;;;;;;12.90;7.03;;;9.80;56.50;;;;;;5049601;28;20102;-74
2022/03/13 11:54:50;;;;;;;11.40;5.90;;;10.00;55.20;;;;;;5049866;28;20502;-75
2022/03/13 11:57:20;;;;;;;13.45;5.90;;;10.20;56.10;;;;;;5048791;28;20037;-74
2022/03/13 11:59:49;;;;;;;10.45;5.38;;;10.10;54.00;;;;;;5047270;28;20033;-74
2022/03/13 12:02:40;;;;;;;9.90;5.47;;;10.50;52.90;;;;;;5049762;28;20103;-74
2022/03/13 12:05:30;;;;;;;17.85;7.82;;;10.50;52.90;;;;;;5049429;28;20036;-74
2022/03/13 12:08:04;;;;;;;13.77;7.63;;;11.00;54.10;;;;;;5048689;28;20045;-74
2022/03/13 12:10:41;;;;;;;10.10;5.07;;;10.70;52.40;;;;;;5047091;28;20037;-75
2022/03/13 12:13:17;;;;;;;7.68;4.60;;;10.70;52.40;;;;;;5044581;28;20090;-74
2022/03/13 12:15:45;;;;;;;9.35;5.70;;;10.70;50.30;;;;;;5043027;28;20033;-74
2022/03/13 12:18:23;;;;;;;9.85;5.60;;;10.90;50.80;;;;;;5048352;28;20086;-74
2022/03/13 12:20:52;;;;;;;14.43;6.55;;;10.90;49.50;;;;;;5045679;28;20025;-73
2022/03/13 12:23:44;;;;;;;10.80;6.57;;;11.10;52.20;;;;;;5046054;28;20029;-72
2022/03/13 12:26:13;;;;;;;22.52;11.57;;;11.20;50.90;;;;;;5040565;28;20045;-73
2022/03/13 12:28:39;;;;;;;73.03;31.45;;;11.30;50.90;;;;;;5044717;28;20459;-75
2022/03/13 12:31:05;;;;;;;15.00;8.35;;;11.40;50.90;;;;;;5044570;28;20122;-74
2022/03/13 12:33:31;;;;;;;11.60;6.47;;;11.60;51.00;;;;;;5048232;28;20166;-73
2022/03/13 12:35:59;;;;;;;10.25;5.10;;;11.30;50.60;;;;;;5044257;28;20036;-73
2022/03/13 12:38:33;;;;;;;10.20;5.18;;;11.60;52.00;;;;;;5044970;28;20025;-75
2022/03/13 12:41:05;;;;;;;12.63;5.53;;;11.70;51.00;;;;;;5036489;28;20086;-75
2022/03/13 12:43:54;;;;;;;8.18;4.72;;;11.80;50.00;;;;;;5037047;28;20038;-75
2022/03/13 12:46:30;;;;;;;10.35;5.57;;;11.80;50.50;;;;;;5044450;28;20120;-76